KRBD/RBD METAR and TAF weather

Enter ICAO airport designator
Station Type Date Time Source
KRBD METAR 2019/07/20 19:53 UTC NOAA

KRBD 201953Z 20011KT 10SM CLR 35/19 A2991 RMK AO2 SLP118 T03500194


Station Type Date Time Source
KRBD Decoded METAR 2019/07/20 19:53 UTC NOAA

DALLAS EXECUTIVE AIRPORT, TX, United States (KRBD) 32-41N 096-52W 203M
Jul 20, 2019 - 03:53 PM EDT / 2019.07.20 1953 UTC
Wind: from the SSW (200 degrees) at 13 MPH (11 KT):0
Visibility: 10 mile(s):0
Sky conditions: clear
Temperature: 95.0 F (35.0 C)
Heat index: 99.0 F (37.2 C):1
Dew Point: 66.9 F (19.4 C)
Relative Humidity: 40%
Pressure (altimeter): 29.91 in. Hg (1012 hPa)
ob: KRBD 201953Z 20011KT 10SM CLR 35/19 A2991 RMK AO2 SLP118 T03500194
cycle: 20

Station Type Date Time Source
KRBD TAF UTC NOAA

Error!

Example: see airport list